Time;durP1;ratioP1;P1;durP2;ratioP2;P2;SDS_P1;SDS_P2;PMS_P1;PMS_P2;Temp;Humidity;BMP_temperature;BMP_pressure;BME280_temperature;BME280_humidity;BME280_pressure;Samples;Min_cycle;Max_cycle;Signal;HPM_P1;HPM_P2
2021/01/04 00:06:02;;;;;;;18.02;11.43;;;1.70;99.90;;;;;;5092406;23;20044;-92
2021/01/04 00:09:19;;;;;;;20.52;11.88;;;1.70;99.90;;;;;;4943079;29;20032;-91
2021/01/04 00:12:07;;;;;;;18.58;11.85;;;1.70;99.90;;;;;;4914017;29;20092;-90
2021/01/04 00:14:52;;;;;;;16.38;10.48;;;1.70;99.90;;;;;;4927108;28;20036;-92
2021/01/04 00:17:27;;;;;;;19.98;11.75;;;1.70;99.90;;;;;;4893547;29;20024;-90
2021/01/04 00:20:38;;;;;;;20.23;11.82;;;1.70;99.90;;;;;;4924192;29;20020;-91
2021/01/04 00:23:14;;;;;;;;;;;1.70;99.90;;;;;;4917231;29;20028;-93
2021/01/04 00:26:03;;;;;;;18.60;11.13;;;1.70;99.90;;;;;;4922944;29;19973;-91
2021/01/04 00:28:33;;;;;;;15.30;10.27;;;1.70;99.90;;;;;;4920411;29;20052;-92
2021/01/04 00:31:04;;;;;;;20.38;11.68;;;1.70;99.90;;;;;;4924053;29;20020;-91
2021/01/04 00:33:38;;;;;;;18.35;12.45;;;1.80;99.90;;;;;;4962752;23;20015;-86
2021/01/04 00:36:12;;;;;;;15.45;10.32;;;1.80;99.90;;;;;;4884597;29;20048;-94
2021/01/04 00:38:57;;;;;;;17.05;10.70;;;1.80;99.90;;;;;;4917852;29;20033;-93
2021/01/04 00:41:50;;;;;;;14.18;8.98;;;1.80;99.90;;;;;;4904582;29;20033;-92
2021/01/04 00:44:40;;;;;;;15.65;10.45;;;1.70;99.90;;;;;;4917188;29;20021;-92
2021/01/04 00:47:34;;;;;;;15.23;10.20;;;1.80;99.90;;;;;;4907970;29;20419;-92
2021/01/04 00:50:12;;;;;;;13.02;9.02;;;1.90;99.90;;;;;;4909539;29;20041;-92
2021/01/04 00:53:05;;;;;;;12.73;8.68;;;1.90;99.90;;;;;;4912002;29;20016;-94
2021/01/04 00:56:05;;;;;;;13.55;7.50;;;2.00;99.90;;;;;;5082951;23;20089;-88
2021/01/04 00:58:51;;;;;;;9.30;6.68;;;2.00;99.90;;;;;;4865896;29;20509;-92
2021/01/04 01:02:05;;;;;;;10.45;7.50;;;2.00;99.90;;;;;;4842764;29;20065;-94
2021/01/04 01:04:43;;;;;;;9.05;5.97;;;2.00;99.90;;;;;;4807982;29;20057;-92
2021/01/04 01:07:23;;;;;;;7.53;5.38;;;2.00;99.90;;;;;;4809935;29;20047;-92
2021/01/04 01:09:52;;;;;;;11.10;7.22;;;2.00;99.90;;;;;;4807981;30;20031;-91
2021/01/04 01:12:56;;;;;;;7.95;5.80;;;1.90;99.90;;;;;;4809556;29;20089;-89
2021/01/04 01:15:24;;;;;;;9.25;6.32;;;2.00;99.90;;;;;;4820756;29;20049;-90
2021/01/04 01:18:05;;;;;;;8.63;5.88;;;1.90;99.90;;;;;;4815449;29;20444;-93
2021/01/04 01:20:32;;;;;;;7.78;5.20;;;1.90;99.90;;;;;;4835082;29;20071;-92
2021/01/04 01:22:58;;;;;;;8.93;5.93;;;1.90;99.90;;;;;;4827689;29;20030;-93
2021/01/04 01:25:31;;;;;;;7.15;5.47;;;1.90;99.90;;;;;;4832333;29;20046;-92
2021/01/04 01:28:34;;;;;;;7.57;5.60;;;1.90;99.90;;;;;;4830851;29;20034;-91
2021/01/04 01:31:38;;;;;;;7.80;5.45;;;1.90;99.90;;;;;;4820461;29;20042;-93
2021/01/04 01:34:18;;;;;;;8.90;5.55;;;1.90;99.90;;;;;;4800849;30;20035;-91
2021/01/04 01:37:07;;;;;;;8.32;5.78;;;1.90;99.90;;;;;;4793171;29;20034;-92
2021/01/04 01:39:52;;;;;;;10.25;5.43;;;1.90;99.90;;;;;;4881004;29;20047;-92
2021/01/04 01:43:12;;;;;;;8.75;6.35;;;1.90;99.90;;;;;;4866134;29;20061;-93
2021/01/04 01:45:40;;;;;;;9.00;5.88;;;1.90;99.90;;;;;;4837231;29;20026;-91
2021/01/04 01:48:30;;;;;;;8.75;5.50;;;1.90;99.90;;;;;;4796402;29;20099;-91
2021/01/04 01:51:06;;;;;;;8.48;5.68;;;1.90;99.90;;;;;;4856835;29;20057;-92
2021/01/04 01:53:59;;;;;;;8.13;5.72;;;1.80;99.90;;;;;;4862535;29;20049;-91
2021/01/04 01:56:48;;;;;;;7.47;5.28;;;1.90;99.90;;;;;;4861232;29;20105;-92
2021/01/04 01:59:37;;;;;;;6.75;5.03;;;1.90;99.90;;;;;;4838674;29;20054;-91
2021/01/04 02:02:06;;;;;;;7.97;6.07;;;1.90;99.90;;;;;;4849033;29;20048;-91
2021/01/04 02:04:53;;;;;;;7.90;5.60;;;1.90;99.90;;;;;;4842584;29;20124;-92
2021/01/04 02:07:46;;;;;;;7.88;5.47;;;1.90;99.90;;;;;;4847079;29;20183;-90
2021/01/04 02:10:26;;;;;;;8.75;5.85;;;1.90;99.90;;;;;;4859793;29;20046;-92
2021/01/04 02:13:08;;;;;;;10.75;6.35;;;1.90;99.90;;;;;;4859412;29;20482;-91
2021/01/04 02:15:51;;;;;;;9.15;6.35;;;1.90;99.90;;;;;;4863102;29;20029;-92
2021/01/04 02:18:28;;;;;;;9.60;6.35;;;1.90;99.90;;;;;;4884383;29;20094;-90
2021/01/04 02:21:34;;;;;;;8.30;5.82;;;1.90;99.90;;;;;;4867885;29;20036;-91
2021/01/04 02:24:19;;;;;;;7.65;5.55;;;1.90;99.90;;;;;;4876493;29;20045;-91
2021/01/04 02:26:55;;;;;;;9.23;6.32;;;1.80;99.90;;;;;;4873576;29;20021;-91
2021/01/04 02:29:24;;;;;;;7.75;5.55;;;1.90;99.90;;;;;;4884245;29;20104;-93
2021/01/04 02:32:08;;;;;;;9.63;6.43;;;1.90;99.90;;;;;;4884069;29;20037;-91
2021/01/04 02:34:44;;;;;;;8.13;5.97;;;2.00;99.90;;;;;;4884177;29;20025;-94
2021/01/04 02:37:12;;;;;;;9.60;6.15;;;1.90;99.90;;;;;;4868713;29;20078;-94
2021/01/04 02:40:04;;;;;;;7.32;5.68;;;2.00;99.90;;;;;;4884123;29;20030;-93
2021/01/04 02:42:43;;;;;;;9.45;6.15;;;2.00;99.90;;;;;;4868608;29;20014;-93
2021/01/04 02:45:26;;;;;;;9.00;5.97;;;1.90;99.90;;;;;;4921876;29;20040;-94
2021/01/04 02:48:29;;;;;;;8.77;6.22;;;2.00;99.90;;;;;;4921720;29;20021;-94
2021/01/04 02:51:02;;;;;;;10.38;7.00;;;1.90;99.90;;;;;;4916353;29;20055;-93
2021/01/04 02:53:37;;;;;;;9.27;6.25;;;1.90;99.90;;;;;;4922404;29;20020;-95
2021/01/04 02:56:02;;;;;;;9.48;6.22;;;1.90;99.90;;;;;;4921062;29;20048;-93
2021/01/04 02:59:00;;;;;;;8.80;6.20;;;1.90;99.90;;;;;;4921731;29;20042;-94
2021/01/04 03:01:40;;;;;;;8.45;6.05;;;2.00;99.90;;;;;;4922326;29;20025;-92
2021/01/04 03:04:09;;;;;;;11.15;6.60;;;1.90;99.90;;;;;;4922139;29;20009;-94
2021/01/04 03:06:49;;;;;;;8.98;6.28;;;2.00;99.90;;;;;;4922206;29;20031;-95
2021/01/04 03:09:15;;;;;;;9.88;6.57;;;1.90;99.90;;;;;;4914084;29;20037;-94
2021/01/04 03:11:44;;;;;;;10.70;6.88;;;1.90;99.90;;;;;;4910256;29;20045;-94
2021/01/04 03:14:38;;;;;;;9.63;6.75;;;1.90;99.90;;;;;;4908567;29;20024;-96
2021/01/04 03:17:41;;;;;;;9.65;7.05;;;2.00;99.90;;;;;;4925951;29;20013;-94
2021/01/04 03:20:14;;;;;;;11.10;7.05;;;2.00;99.90;;;;;;4925700;29;20040;-93
2021/01/04 03:22:42;;;;;;;9.85;6.22;;;2.00;99.90;;;;;;4899842;29;20040;-94
2021/01/04 03:25:36;;;;;;;11.55;7.03;;;1.90;99.90;;;;;;4892004;29;20036;-94
2021/01/04 03:28:05;;;;;;;10.18;7.20;;;1.90;99.90;;;;;;4895671;29;20037;-94
2021/01/04 03:30:30;;;;;;;14.05;6.95;;;1.90;99.90;;;;;;4902398;29;20032;-95
2021/01/04 03:33:38;;;;;;;9.05;6.07;;;1.90;99.90;;;;;;4907942;29;20036;-95
2021/01/04 03:36:04;;;;;;;9.35;6.75;;;1.90;99.90;;;;;;4902180;29;20020;-94
2021/01/04 03:38:32;;;;;;;11.60;7.70;;;1.90;99.90;;;;;;4899441;29;20041;-95
2021/01/04 03:40:58;;;;;;;9.45;6.45;;;1.90;99.90;;;;;;4887937;29;20028;-93
2021/01/04 03:43:24;;;;;;;8.38;5.93;;;1.90;99.90;;;;;;4891193;29;20136;-96
2021/01/04 03:45:50;;;;;;;11.10;7.63;;;1.90;99.90;;;;;;4888768;29;20067;-94
2021/01/04 03:48:16;;;;;;;11.05;7.15;;;1.90;99.90;;;;;;4904869;29;20017;-94
2021/01/04 03:50:44;;;;;;;9.50;6.60;;;1.90;99.90;;;;;;4905529;29;20029;-91
2021/01/04 03:53:10;;;;;;;11.90;7.60;;;1.90;99.90;;;;;;4922145;29;20214;-94
2021/01/04 03:55:39;;;;;;;11.20;7.40;;;1.90;99.90;;;;;;4910706;29;20099;-92
2021/01/04 03:58:07;;;;;;;12.82;7.97;;;1.90;99.90;;;;;;4930213;29;20019;-91
2021/01/04 04:00:33;;;;;;;9.45;6.75;;;2.00;99.90;;;;;;4926232;29;20020;-94
2021/01/04 04:02:59;;;;;;;10.25;7.63;;;2.00;99.90;;;;;;4929760;29;20036;-91
2021/01/04 04:05:27;;;;;;;11.50;7.22;;;1.90;99.90;;;;;;4928859;29;20425;-95
2021/01/04 04:07:52;;;;;;;11.68;7.63;;;1.90;99.90;;;;;;4926445;29;20076;-94
2021/01/04 04:10:25;;;;;;;13.43;8.52;;;1.90;99.90;;;;;;4909249;29;20040;-93
2021/01/04 04:12:52;;;;;;;11.50;8.10;;;1.90;99.90;;;;;;4915819;29;20096;-95
2021/01/04 04:15:21;;;;;;;9.77;6.75;;;1.90;99.90;;;;;;4922390;29;20044;-93
2021/01/04 04:17:47;;;;;;;13.02;8.38;;;1.90;99.90;;;;;;4920017;29;20040;-92
2021/01/04 04:20:19;;;;;;;11.63;7.85;;;1.90;99.90;;;;;;4914152;29;20032;-93
2021/01/04 04:22:48;;;;;;;10.30;7.90;;;1.90;99.90;;;;;;4911779;29;20048;-91
2021/01/04 04:25:14;;;;;;;11.50;7.50;;;1.90;99.90;;;;;;4906673;29;20044;-92
2021/01/04 04:27:40;;;;;;;12.20;7.05;;;1.90;99.90;;;;;;4922421;29;20067;-91
2021/01/04 04:30:08;;;;;;;11.70;7.90;;;2.00;99.90;;;;;;4920548;29;20033;-96
2021/01/04 04:35:10;;;;;;;12.05;7.32;;;2.00;99.90;;;;;;4946837;28;20043;-96
2021/01/04 04:37:37;;;;;;;12.20;8.30;;;2.00;99.90;;;;;;4962628;28;20048;-93
2021/01/04 04:40:08;;;;;;;12.82;8.48;;;2.00;99.90;;;;;;4962701;28;20041;-94
2021/01/04 04:42:38;;;;;;;11.98;7.80;;;1.90;99.90;;;;;;4945656;28;20096;-94
2021/01/04 04:45:27;;;;;;;12.90;8.93;;;2.00;99.90;;;;;;4949281;28;20025;-95
2021/01/04 04:48:25;;;;;;;;;;;;;;;;;;;;;
2021/01/04 04:51:20;;;;;;;13.75;9.25;;;2.00;99.90;;;;;;4938418;29;20095;-93
2021/01/04 04:54:13;;;;;;;13.70;9.77;;;2.00;99.90;;;;;;4934641;29;20099;-96
2021/01/04 04:56:54;;;;;;;14.10;9.15;;;1.90;99.90;;;;;;4933218;29;20092;-95
2021/01/04 05:00:03;;;;;;;13.38;9.10;;;1.90;99.90;;;;;;4932285;29;20098;-94
2021/01/04 05:03:03;;;;;;;12.00;8.63;;;2.00;99.90;;;;;;4879838;29;20059;-94
2021/01/04 05:05:55;;;;;;;13.18;9.48;;;2.00;99.90;;;;;;4835197;29;20107;-94
2021/01/04 05:08:32;;;;;;;11.73;8.82;;;1.90;99.90;;;;;;4837159;29;20034;-93
2021/01/04 05:11:00;;;;;;;13.25;8.82;;;2.00;99.90;;;;;;4841982;29;20095;-92
2021/01/04 05:13:35;;;;;;;13.50;9.32;;;2.00;99.90;;;;;;4828299;29;20033;-92
2021/01/04 05:16:08;;;;;;;13.00;8.32;;;2.00;99.90;;;;;;4847830;29;20027;-92
2021/01/04 05:18:40;;;;;;;12.90;8.45;;;2.00;99.90;;;;;;4837705;29;20034;-93
2021/01/04 05:21:57;;;;;;;12.57;8.73;;;2.00;99.90;;;;;;4829895;29;20035;-93
2021/01/04 05:24:50;;;;;;;13.52;9.10;;;2.00;99.90;;;;;;4775641;30;20048;-92
2021/01/04 05:28:02;;;;;;;13.88;8.52;;;2.00;99.90;;;;;;4828478;29;20065;-94
2021/01/04 05:30:49;;;;;;;12.48;8.20;;;2.10;99.90;;;;;;4743491;30;20063;-95
2021/01/04 05:33:32;;;;;;;12.07;8.43;;;2.10;99.90;;;;;;4762137;30;20101;-93
2021/01/04 05:36:44;;;;;;;12.30;8.35;;;2.10;99.90;;;;;;4773490;30;20036;-94
2021/01/04 05:39:29;;;;;;;12.85;7.85;;;2.00;99.90;;;;;;4749627;30;20138;-93
2021/01/04 05:42:22;;;;;;;11.85;7.53;;;2.00;99.90;;;;;;4765139;29;20023;-93
2021/01/04 05:45:20;;;;;;;11.45;7.18;;;2.00;99.90;;;;;;4847656;29;20082;-94
2021/01/04 05:48:30;;;;;;;11.73;7.88;;;2.10;99.90;;;;;;4832375;29;20019;-93
2021/01/04 05:51:15;;;;;;;11.80;8.65;;;2.10;99.90;;;;;;4832461;29;20034;-92
2021/01/04 05:53:42;;;;;;;10.65;6.72;;;2.10;99.90;;;;;;4855699;29;20025;-93
2021/01/04 05:56:10;;;;;;;10.82;7.93;;;2.00;99.90;;;;;;4856043;29;20038;-91
2021/01/04 05:58:37;;;;;;;11.05;7.75;;;2.00;99.90;;;;;;4845403;29;20057;-93
2021/01/04 06:01:15;;;;;;;11.98;7.78;;;2.00;99.90;;;;;;4835627;29;20037;-94
2021/01/04 06:03:53;;;;;;;9.45;6.97;;;2.10;99.90;;;;;;4872130;29;20140;-92
2021/01/04 06:09:23;;;;;;;9.55;6.50;;;2.00;99.90;;;;;;5230177;23;20052;-93
2021/01/04 06:12:19;;;;;;;9.48;6.78;;;2.10;99.90;;;;;;4917605;29;20048;-92
2021/01/04 06:14:57;;;;;;;10.02;6.88;;;2.10;99.90;;;;;;4934086;29;20402;-93
2021/01/04 06:17:44;;;;;;;10.48;6.93;;;2.00;99.90;;;;;;4920771;29;20008;-92
2021/01/04 06:20:54;;;;;;;12.60;7.32;;;2.10;99.90;;;;;;4924324;29;20461;-94
2021/01/04 06:23:40;;;;;;;10.02;7.13;;;2.10;99.90;;;;;;4867170;29;20026;-92
2021/01/04 06:26:14;;;;;;;10.43;6.60;;;2.10;99.90;;;;;;4868722;29;20045;-94
2021/01/04 06:29:03;;;;;;;11.60;7.18;;;2.10;99.90;;;;;;4870798;29;20039;-93
2021/01/04 06:31:52;;;;;;;10.15;6.53;;;2.10;99.90;;;;;;4857682;29;20037;-92
2021/01/04 06:34:22;;;;;;;9.88;6.50;;;2.10;99.90;;;;;;4863191;29;20105;-95
2021/01/04 06:36:52;;;;;;;10.93;7.40;;;2.10;99.90;;;;;;4864663;29;20014;-92
2021/01/04 06:39:24;;;;;;;10.40;6.75;;;2.10;99.90;;;;;;4864279;29;20058;-93
2021/01/04 06:41:51;;;;;;;10.77;7.15;;;2.10;99.90;;;;;;4865844;29;20026;-93
2021/01/04 06:44:29;;;;;;;11.38;7.05;;;2.10;99.90;;;;;;4872312;29;20535;-90
2021/01/04 06:47:06;;;;;;;9.43;6.75;;;2.10;99.90;;;;;;4858399;29;20393;-94
2021/01/04 06:49:43;;;;;;;11.10;7.63;;;2.10;99.90;;;;;;4853878;29;20042;-92
2021/01/04 06:52:34;;;;;;;10.15;6.82;;;2.10;99.90;;;;;;4851586;29;20098;-92
2021/01/04 06:55:35;;;;;;;10.70;7.32;;;2.10;99.90;;;;;;4839884;29;20053;-92
2021/01/04 06:58:16;;;;;;;11.40;6.82;;;2.10;99.90;;;;;;4849153;29;20468;-93
2021/01/04 07:01:09;;;;;;;10.45;7.60;;;2.10;99.90;;;;;;4924492;29;20073;-92
2021/01/04 07:04:05;;;;;;;10.23;7.28;;;2.10;99.90;;;;;;4911512;29;20032;-92
2021/01/04 07:06:51;;;;;;;11.50;7.75;;;2.10;99.90;;;;;;4929513;29;20109;-93
2021/01/04 07:09:22;;;;;;;12.38;7.95;;;2.20;99.90;;;;;;4930242;29;20048;-92
2021/01/04 07:12:11;;;;;;;9.50;6.18;;;2.20;99.90;;;;;;4920317;29;20103;-92
2021/01/04 07:15:16;;;;;;;11.05;7.20;;;2.20;99.90;;;;;;4936982;29;20020;-91
2021/01/04 07:17:49;;;;;;;10.65;7.25;;;2.20;99.90;;;;;;4862499;29;20025;-93
2021/01/04 07:20:56;;;;;;;11.90;7.40;;;2.20;99.90;;;;;;4860161;29;20070;-92
2021/01/04 07:23:44;;;;;;;11.13;7.13;;;2.20;99.90;;;;;;4877919;29;20081;-91
2021/01/04 07:26:53;;;;;;;10.40;6.90;;;2.30;99.90;;;;;;4890972;29;20049;-94
2021/01/04 07:29:28;;;;;;;11.75;7.38;;;2.30;99.90;;;;;;4884982;29;20034;-93
2021/01/04 07:32:19;;;;;;;13.05;7.97;;;2.30;99.90;;;;;;4869606;29;20049;-94
2021/01/04 07:34:51;;;;;;;10.75;7.10;;;2.20;99.90;;;;;;4871381;29;20049;-93
2021/01/04 07:37:42;;;;;;;9.20;6.88;;;2.30;99.90;;;;;;4855694;29;20036;-94
2021/01/04 07:40:31;;;;;;;10.82;7.38;;;2.30;99.90;;;;;;4868788;29;20149;-92
2021/01/04 07:43:17;;;;;;;10.93;7.18;;;2.30;99.90;;;;;;4874500;29;20052;-92
2021/01/04 07:45:53;;;;;;;9.50;6.35;;;2.30;99.90;;;;;;4855166;29;20513;-92
2021/01/04 07:48:39;;;;;;;9.30;6.57;;;2.30;99.90;;;;;;4883516;29;20121;-91
2021/01/04 07:51:42;;;;;;;10.25;7.18;;;2.30;99.90;;;;;;4882647;29;20049;-91
2021/01/04 07:54:44;;;;;;;11.18;6.38;;;2.40;99.90;;;;;;4932522;29;20020;-94
2021/01/04 07:57:32;;;;;;;9.52;6.82;;;2.40;99.90;;;;;;4934327;29;20040;-93
2021/01/04 08:00:35;;;;;;;14.13;8.57;;;2.40;99.90;;;;;;4932030;29;20044;-92
2021/01/04 08:03:44;;;;;;;10.10;7.30;;;2.40;99.90;;;;;;4936781;29;20032;-94
2021/01/04 08:06:54;;;;;;;9.15;6.43;;;2.40;99.90;;;;;;4862557;29;20042;-94
2021/01/04 08:09:20;;;;;;;10.05;7.22;;;2.40;99.90;;;;;;4849753;29;20062;-95
2021/01/04 08:12:13;;;;;;;11.32;7.47;;;2.40;99.90;;;;;;4854073;29;20089;-93
2021/01/04 08:15:16;;;;;;;9.98;7.13;;;2.40;99.90;;;;;;4802176;30;20493;-93
2021/01/04 08:17:58;;;;;;;10.02;6.88;;;2.30;99.90;;;;;;4807743;29;20057;-92
2021/01/04 08:20:24;;;;;;;10.40;7.20;;;2.40;99.90;;;;;;4802068;30;20027;-93
2021/01/04 08:23:04;;;;;;;11.02;7.57;;;2.50;99.90;;;;;;4827823;29;20050;-92
2021/01/04 08:25:32;;;;;;;13.65;8.90;;;2.50;99.90;;;;;;4822543;29;20038;-92
2021/01/04 08:28:26;;;;;;;10.65;7.03;;;2.50;99.90;;;;;;4819618;29;20064;-95
2021/01/04 08:31:04;;;;;;;9.73;6.82;;;2.50;99.90;;;;;;4804384;29;20084;-93
2021/01/04 08:33:58;;;;;;;11.25;7.50;;;2.50;99.90;;;;;;4802860;30;20226;-92
2021/01/04 08:36:55;;;;;;;11.25;7.30;;;2.50;99.90;;;;;;4785001;30;20093;-93
2021/01/04 08:39:40;;;;;;;11.68;7.55;;;2.60;99.90;;;;;;4805781;29;20106;-93
2021/01/04 08:42:44;;;;;;;11.25;6.90;;;2.60;99.90;;;;;;4785455;30;20067;-94
2021/01/04 08:45:13;;;;;;;10.73;7.63;;;2.60;99.90;;;;;;4777709;30;20073;-94
2021/01/04 08:47:51;;;;;;;11.90;8.40;;;2.60;99.90;;;;;;4803757;29;20043;-94
2021/01/04 08:50:25;;;;;;;11.18;7.60;;;2.60;99.90;;;;;;4806229;30;20122;-92
2021/01/04 08:52:55;;;;;;;11.48;8.13;;;2.60;99.90;;;;;;4802855;29;20043;-93
2021/01/04 08:55:33;;;;;;;12.07;8.85;;;2.60;99.90;;;;;;4802161;29;20043;-93
2021/01/04 08:58:21;;;;;;;10.85;7.80;;;2.60;99.90;;;;;;4802855;30;20035;-93
2021/01/04 09:01:12;;;;;;;11.70;8.45;;;2.70;99.90;;;;;;4788080;30;20031;-94
2021/01/04 09:03:44;;;;;;;11.88;8.07;;;2.70;99.90;;;;;;4791587;30;20043;-93
2021/01/04 09:06:15;;;;;;;12.00;7.90;;;2.60;99.90;;;;;;4785015;30;20039;-93
2021/01/04 09:08:52;;;;;;;11.95;8.13;;;2.80;99.90;;;;;;4807444;29;20046;-94
2021/01/04 09:11:21;;;;;;;11.90;8.25;;;2.80;99.90;;;;;;4819908;29;20027;-94
2021/01/04 09:13:51;;;;;;;12.05;7.88;;;2.70;99.90;;;;;;4806360;29;20051;-94
2021/01/04 09:16:39;;;;;;;11.68;7.60;;;2.80;99.90;;;;;;4817422;29;20031;-92
2021/01/04 09:19:39;;;;;;;12.80;8.55;;;2.80;99.90;;;;;;4849860;29;20041;-92
2021/01/04 09:22:13;;;;;;;12.55;7.20;;;2.80;99.90;;;;;;4877592;29;20033;-92
2021/01/04 09:24:47;;;;;;;12.35;8.18;;;2.80;99.90;;;;;;4889393;29;20033;-92
2021/01/04 09:30:09;;;;;;;13.38;8.70;;;2.90;99.90;;;;;;4915674;29;20040;-94
2021/01/04 09:32:39;;;;;;;11.57;7.75;;;2.90;99.90;;;;;;4900561;29;20024;-94
2021/01/04 09:35:15;;;;;;;13.77;9.00;;;2.90;99.90;;;;;;4921749;29;20023;-94
2021/01/04 09:37:42;;;;;;;11.95;7.72;;;3.00;99.90;;;;;;4905959;29;20029;-94
2021/01/04 09:40:18;;;;;;;15.13;8.80;;;3.00;99.90;;;;;;4877102;29;20024;-94
2021/01/04 09:42:55;;;;;;;;;;;;;;;;;;;;;
2021/01/04 09:45:29;;;;;;;11.80;8.70;;;3.10;99.90;;;;;;4895812;29;20132;-93
2021/01/04 09:48:16;;;;;;;11.38;7.97;;;3.10;99.90;;;;;;5024076;23;20065;-94
2021/01/04 09:51:01;;;;;;;12.80;8.35;;;3.10;99.90;;;;;;4895955;29;20048;-94
2021/01/04 09:53:34;;;;;;;12.70;8.75;;;3.00;99.90;;;;;;4907538;29;20043;-95
2021/01/04 09:57:03;;;;;;;15.10;8.85;;;3.00;99.90;;;;;;4876437;29;20038;-95
2021/01/04 09:59:40;;;;;;;13.32;9.40;;;3.10;99.90;;;;;;4884691;29;20018;-95
2021/01/04 10:05:50;;;;;;;15.80;9.27;;;3.10;99.90;;;;;;4835519;29;20204;-94
2021/01/04 10:11:09;;;;;;;13.63;8.82;;;3.20;99.90;;;;;;4946604;23;20048;-92
2021/01/04 10:13:43;;;;;;;14.20;8.55;;;3.20;99.90;;;;;;4914464;29;20404;-95
2021/01/04 10:16:40;;;;;;;13.90;9.05;;;3.20;99.90;;;;;;4883180;29;20025;-94
2021/01/04 10:19:12;;;;;;;16.08;10.02;;;3.20;99.90;;;;;;5023387;23;20070;-93
2021/01/04 10:22:14;;;;;;;15.95;10.35;;;3.20;99.90;;;;;;4874497;29;20029;-96
2021/01/04 10:25:20;;;;;;;14.13;9.68;;;3.20;99.90;;;;;;4787086;29;20070;-96
2021/01/04 10:28:13;;;;;;;14.82;9.10;;;3.40;99.90;;;;;;4792898;29;20118;-96
2021/01/04 10:30:51;;;;;;;19.05;10.88;;;3.40;99.90;;;;;;4785688;30;20084;-94
2021/01/04 10:33:36;;;;;;;13.52;9.18;;;3.40;99.90;;;;;;4799624;30;20019;-93
2021/01/04 10:36:12;;;;;;;13.30;9.07;;;3.40;99.90;;;;;;4800105;29;20046;-94
2021/01/04 10:38:44;;;;;;;14.80;9.48;;;3.40;99.90;;;;;;4798411;29;20023;-93
2021/01/04 10:41:12;;;;;;;15.18;8.82;;;3.50;99.90;;;;;;4795955;29;20064;-96
2021/01/04 10:43:39;;;;;;;13.35;8.75;;;3.40;99.90;;;;;;4799012;30;20039;-95
2021/01/04 10:46:28;;;;;;;12.38;8.38;;;3.30;99.90;;;;;;4769775;30;20107;-96
2021/01/04 10:49:31;;;;;;;13.85;9.15;;;3.40;99.90;;;;;;4804998;29;20043;-94
2021/01/04 10:52:06;;;;;;;11.73;8.40;;;3.30;99.90;;;;;;4808717;29;20047;-94
2021/01/04 10:54:41;;;;;;;10.48;7.57;;;3.30;99.90;;;;;;4781194;30;20031;-96
2021/01/04 10:57:40;;;;;;;13.32;9.02;;;3.30;99.90;;;;;;4896768;23;20078;-93
2021/01/04 11:00:14;;;;;;;14.60;8.50;;;3.40;99.90;;;;;;4839879;29;20047;-94
2021/01/04 11:02:45;;;;;;;10.57;7.43;;;3.40;99.90;;;;;;4821315;29;20042;-93
2021/01/04 11:05:13;;;;;;;14.73;8.95;;;3.30;99.90;;;;;;4835855;29;20066;-94
2021/01/04 11:07:46;;;;;;;11.25;8.18;;;3.30;99.90;;;;;;4835771;29;20033;-95
2021/01/04 11:10:29;;;;;;;12.60;8.50;;;3.40;99.90;;;;;;4833679;29;20030;-94
2021/01/04 11:13:07;;;;;;;11.05;8.00;;;3.40;99.90;;;;;;4837211;29;20037;-95
2021/01/04 11:15:36;;;;;;;12.00;8.23;;;3.40;99.90;;;;;;4831313;29;20058;-94
2021/01/04 11:18:13;;;;;;;22.88;9.70;;;3.50;99.90;;;;;;4838237;29;20048;-93
2021/01/04 11:23:17;;;;;;;11.57;7.65;;;3.40;99.90;;;;;;5006187;23;20057;-93
2021/01/04 11:28:37;;;;;;;10.90;7.32;;;3.40;99.90;;;;;;4892206;29;20451;-96
2021/01/04 11:31:18;;;;;;;9.80;6.75;;;3.50;99.90;;;;;;4899640;29;20033;-95
2021/01/04 11:33:44;;;;;;;11.48;7.13;;;3.50;99.90;;;;;;4957970;23;20059;-95
2021/01/04 11:53:24;;;;;;;12.52;8.80;;;3.60;99.90;;;;;;5899129;23;20033;-84
2021/01/04 11:55:50;;;;;;;10.60;6.93;;;3.60;99.90;;;;;;4889697;29;20092;-91
2021/01/04 11:58:16;;;;;;;10.85;7.55;;;3.60;99.90;;;;;;5040952;23;20060;-88
2021/01/04 12:00:42;;;;;;;11.32;8.00;;;3.60;99.90;;;;;;4909273;29;20024;-93
2021/01/04 12:05:43;;;;;;;12.20;8.20;;;3.50;99.90;;;;;;5009184;23;20040;-84
2021/01/04 12:11:37;;;;;;;12.70;7.93;;;3.60;99.90;;;;;;5218926;23;20048;-92
2021/01/04 12:14:07;;;;;;;13.20;8.52;;;3.60;99.90;;;;;;4983723;23;20071;-94
2021/01/04 12:24:18;;;;;;;11.95;8.80;;;3.80;99.90;;;;;;4896110;29;20041;-94
2021/01/04 12:27:07;;;;;;;12.77;7.72;;;3.80;99.90;;;;;;4867210;29;20037;-95
2021/01/04 12:29:36;;;;;;;11.10;7.22;;;3.80;99.90;;;;;;4872477;29;20469;-93
2021/01/04 12:32:03;;;;;;;9.77;6.35;;;3.70;99.90;;;;;;4902010;29;20088;-91
2021/01/04 12:34:29;;;;;;;8.48;6.07;;;3.60;99.90;;;;;;4893206;29;20048;-93
2021/01/04 12:36:55;;;;;;;9.68;6.88;;;3.50;99.90;;;;;;4891574;29;20033;-93
2021/01/04 12:42:09;;;;;;;12.27;7.43;;;3.60;99.90;;;;;;5189476;23;19923;-92
2021/01/04 12:44:38;;;;;;;9.68;6.60;;;3.70;99.90;;;;;;5176600;23;20067;-95
2021/01/04 12:47:04;;;;;;;11.43;7.20;;;3.70;99.90;;;;;;4899462;29;20146;-94
2021/01/04 12:49:30;;;;;;;11.52;7.78;;;3.60;99.90;;;;;;4919331;29;20024;-95
2021/01/04 12:51:58;;;;;;;10.65;7.10;;;3.60;99.90;;;;;;4911677;29;20044;-91
2021/01/04 12:54:31;;;;;;;10.80;7.18;;;3.70;99.90;;;;;;4896110;29;20032;-92
2021/01/04 12:57:03;;;;;;;11.75;7.50;;;3.70;99.90;;;;;;4894875;29;20060;-93
2021/01/04 12:59:29;;;;;;;9.85;7.15;;;3.70;99.90;;;;;;4887016;29;20045;-91
2021/01/04 13:01:56;;;;;;;12.25;7.70;;;3.70;99.90;;;;;;4882849;29;20036;-92
2021/01/04 13:04:24;;;;;;;11.48;7.25;;;3.70;99.90;;;;;;4899628;29;20032;-94
2021/01/04 13:12:42;;;;;;;10.07;6.68;;;3.70;99.90;;;;;;4560896;23;20071;-92
2021/01/04 13:15:09;;;;;;;9.93;6.57;;;3.60;99.90;;;;;;4906748;29;20041;-89
2021/01/04 13:17:35;;;;;;;10.18;6.82;;;3.60;99.90;;;;;;4895844;29;20067;-91
2021/01/04 13:20:02;;;;;;;10.60;6.57;;;3.60;99.90;;;;;;4913378;29;20024;-91
2021/01/04 13:22:29;;;;;;;11.38;7.43;;;3.50;99.90;;;;;;4908520;29;20020;-91
2021/01/04 13:24:59;;;;;;;11.43;8.52;;;3.50;99.90;;;;;;4893179;29;20258;-92
2021/01/04 13:27:25;;;;;;;11.40;6.47;;;3.60;99.90;;;;;;4876867;29;20089;-92
2021/01/04 13:29:52;;;;;;;9.85;6.60;;;3.50;99.90;;;;;;4896790;29;20029;-91
2021/01/04 13:32:27;;;;;;;9.93;7.15;;;3.50;99.90;;;;;;4918222;29;20064;-93
2021/01/04 13:45:38;;;;;;;10.00;6.35;;;3.50;99.90;;;;;;5182760;23;20048;31
2021/01/04 13:50:48;;;;;;;9.15;6.57;;;3.60;99.90;;;;;;5094676;23;20278;31
2021/01/04 14:03:43;;;;;;;9.77;6.05;;;3.60;99.90;;;;;;5536366;23;20140;-91
2021/01/04 14:13:57;;;;;;;10.27;5.85;;;3.60;99.90;;;;;;5720995;23;20087;-88
2021/01/04 14:16:26;;;;;;;8.82;6.55;;;3.60;99.90;;;;;;5029910;23;20077;-91
2021/01/04 14:19:08;;;;;;;7.72;5.72;;;3.60;99.90;;;;;;4882705;29;20022;-91
2021/01/04 14:21:36;;;;;;;;;;;3.50;99.90;;;;;;4881258;29;20029;-91
2021/01/04 14:24:06;;;;;;;10.00;6.32;;;3.60;99.90;;;;;;4867011;29;19912;-95
2021/01/04 14:26:39;;;;;;;8.50;6.00;;;3.50;99.90;;;;;;5366543;23;20060;-96
2021/01/04 14:34:47;;;;;;;9.43;6.45;;;3.60;99.90;;;;;;5223208;23;20059;-95
2021/01/04 14:37:12;;;;;;;9.38;5.53;;;3.50;99.90;;;;;;5087171;23;20027;-94
2021/01/04 14:40:05;;;;;;;8.70;5.80;;;3.50;99.90;;;;;;4897448;29;20120;-90
2021/01/04 14:45:08;;;;;;;9.77;6.13;;;3.40;99.90;;;;;;4896892;29;20033;-94
2021/01/04 14:47:39;;;;;;;9.43;5.68;;;3.40;99.90;;;;;;4886034;29;20087;-93
2021/01/04 14:50:07;;;;;;;;;;;3.40;99.90;;;;;;4891143;29;20025;-91
2021/01/04 14:55:11;;;;;;;8.05;5.63;;;3.40;99.90;;;;;;5193797;23;20391;-91
2021/01/04 14:57:44;;;;;;;8.20;5.63;;;3.40;99.90;;;;;;4883876;29;20032;-92
2021/01/04 15:00:12;;;;;;;8.02;5.60;;;3.40;99.90;;;;;;4914560;29;20021;-94
2021/01/04 15:02:40;;;;;;;9.05;6.05;;;3.40;99.90;;;;;;4915193;29;20144;-92
2021/01/04 15:05:09;;;;;;;10.20;5.82;;;3.50;99.90;;;;;;4872307;29;20037;-93
2021/01/04 15:07:35;;;;;;;10.90;7.72;;;3.40;99.90;;;;;;4875237;29;20056;-90
2021/01/04 15:10:01;;;;;;;10.65;5.68;;;3.40;99.90;;;;;;4864654;29;20041;-93
2021/01/04 15:12:28;;;;;;;9.55;6.72;;;3.40;99.90;;;;;;4855930;29;20045;-93
2021/01/04 15:14:53;;;;;;;10.48;6.18;;;3.40;99.90;;;;;;4862761;29;20033;-92
2021/01/04 15:17:24;;;;;;;11.73;6.22;;;3.40;99.90;;;;;;4869069;29;20097;-94
2021/01/04 15:19:49;;;;;;;8.15;6.22;;;3.40;99.90;;;;;;4846209;29;20243;-94
2021/01/04 15:36:10;;;;;;;10.50;6.72;;;3.20;99.90;;;;;;5319434;23;20044;-94
2021/01/04 15:38:42;;;;;;;8.32;5.53;;;3.20;99.90;;;;;;4906395;29;20013;-96
2021/01/04 15:46:38;;;;;;;11.15;6.82;;;3.20;99.90;;;;;;5255073;23;20063;-93
2021/01/04 15:49:11;;;;;;;11.60;7.15;;;3.20;99.90;;;;;;4921679;29;20053;-96
2021/01/04 15:56:53;;;;;;;10.95;6.80;;;3.40;99.90;;;;;;5280701;23;20052;-95
2021/01/04 15:59:21;;;;;;;11.60;7.47;;;3.20;99.90;;;;;;5078685;23;20044;-93
2021/01/04 16:01:48;;;;;;;7.93;5.72;;;3.20;99.90;;;;;;4905074;29;20040;-94
2021/01/04 16:04:16;;;;;;;9.98;6.28;;;3.30;99.90;;;;;;4906603;29;20059;-95
2021/01/04 16:06:53;;;;;;;10.45;7.20;;;3.30;99.90;;;;;;4903362;29;20021;-93